Terminal Aerodrome Forecast
Issued by NWS Cleveland, OH

Home | Current Version | Previous Version | Text Only | Print | Product List | Glossary Off
Versions: 1 2 3 4 5 6 7 8 9 10 11 12 13 14 15 16 17 18 19

000
FTUS41 KCLE 171551 AAA
TAFCAK
TAF AMD
KCAK 171551Z 1716/1812 20008KT P6SM VCSH SCT060 BKN100
     FM171800 20010KT P6SM VCTS BKN030CB
      TEMPO 1719/1723 2SM TSRA BKN025CB
     FM172300 20010G20KT P6SM VCTS SCT040CB BKN060
     FM180300 22008KT P6SM SCT060 BKN200=

USA.gov is the U.S. government's official web portal to all federal, state and local government web resources and services.